Home

Weather

KSLC Current Conditions

KSLC 201154Z 22003KT 10SM CLR 13/01 A3000 RMK AO2 SLP112 T01330011 10167 20122 53020

KSLC Aviation Forecast

TAF KSLC 201120Z 2012/2118 35003KT P6SM SKC FM201700 33010KT P6SM SKC FM210300 15005KT P6SM SKC


76° F
Clear
Clear

Clear
Thursday
Clear
High 73°/Low 49°
0%
Clear
Friday
Clear
High 82°/Low 56°
0%
Clear
Saturday
Clear
High 87°/Low 60°
0%
Clear
Sunday
Clear
High 84°/Low 53°
0%
Clear
Monday
Clear
High 74°/Low 49°
0%
Clear
Tuesday
Clear
High 74°/Low 48°
0%